»·PEaware :: N6515D L71-KSNA

N6515D :: L71-KSNA

FLIGHT INFORMATION

Flight Status: Arrived
Operator: Privately registered:
United States
More flights under this callsign
Pilot: Charles S. (11412)
Aircraft: Unknown
(DA62)
More flights by this aircraft type
Origin: L71 California City Mun
United States
Destination: KSNA John Wayne-Orange Co
United States
More flights between these airports :: More routes between these airports
Route: ROSIE PMD V197 POM V363 WOKRO V8 SLI
File this flight plan on PilotEdge
Remarks:
Altitude:
(Current/Filed)
11,000ft
Speed:
(Current/Filed)
190kts
Departed: 30-Apr-18 07:34 AM
Arrived: 30-Apr-18 08:15 AM
Distance/Time
Traveled:
89nm/0:41
Distance/Time
To Go:
Arrived

Flight Plot

Page will automatically refresh every two minutes.

Flight plan parsing failed; only flown route is shown


Map Options




Map Legend


Flown Route
Filed Route
Departure Airport
Arrival Airport
Navaid (VOR, NDB)
Fix

Horizontal Profiles

Position Reports

Time Latitude Longitude Heading Altitude Ground
Speed
30-Apr-18 07:20 35.150331 -118.015722 89 2426ft 0kts
30-Apr-18 07:21 35.150331 -118.015722 89 2426ft 0kts
30-Apr-18 07:22 35.150331 -118.015722 89 2426ft 0kts
30-Apr-18 07:23 35.150331 -118.015722 89 2426ft 0kts
30-Apr-18 07:24 35.150331 -118.015722 89 2426ft 0kts
30-Apr-18 07:25 35.150331 -118.015722 89 2426ft 0kts
30-Apr-18 07:26 35.150331 -118.015722 89 2426ft 0kts
30-Apr-18 07:27 35.150331 -118.015722 89 2426ft 0kts
30-Apr-18 07:28 35.150331 -118.015722 89 2426ft 0kts
30-Apr-18 07:29 35.150918 -118.014823 76 2424ft 0kts
30-Apr-18 07:30 35.150918 -118.014823 76 2424ft 0kts
30-Apr-18 07:31 35.150968 -118.014613 75 2423ft 0kts
30-Apr-18 07:32 35.152017 -118.009684 75 2408ft 18kts
30-Apr-18 07:33 35.152644 -118.010134 255 2410ft 62kts
30-Apr-18 07:34 35.137774 -118.031794 206 2994ft 103kts
30-Apr-18 07:35 35.111526 -118.044564 211 3781ft 102kts
30-Apr-18 07:36 35.086019 -118.059447 213 4578ft 102kts
30-Apr-18 07:37 35.056959 -118.077547 213 5316ft 131kts
30-Apr-18 07:38 35.022992 -118.098967 212 6130ft 142kts
30-Apr-18 07:39 34.991838 -118.118683 212 6833ft 142kts
30-Apr-18 07:40 34.960833 -118.138305 213 7540ft 138kts
30-Apr-18 07:41 34.926947 -118.159761 214 8331ft 137kts
30-Apr-18 07:42 34.893782 -118.180749 215 9107ft 137kts
30-Apr-18 07:43 34.859895 -118.202172 213 9889ft 139kts
30-Apr-18 07:44 34.821133 -118.186412 158 10648ft 155kts
30-Apr-18 07:45 34.780812 -118.160658 157 10991ft 179kts
30-Apr-18 07:46 34.735971 -118.131772 157 10993ft 191kts
30-Apr-18 07:47 34.688742 -118.101326 157 10997ft 193kts
30-Apr-18 07:48 34.641696 -118.070543 155 10999ft 194kts
30-Apr-18 07:49 34.592963 -118.044401 161 10998ft 193kts
30-Apr-18 07:50 34.543723 -118.019620 161 11000ft 193kts
30-Apr-18 07:51 34.494533 -117.994902 161 11002ft 193kts
30-Apr-18 07:52 34.445198 -117.970144 161 11007ft 193kts
30-Apr-18 07:53 34.396046 -117.945501 161 10996ft 195kts
30-Apr-18 07:54 34.346103 -117.920492 160 10990ft 195kts
30-Apr-18 07:55 34.300412 -117.897646 160 10993ft 196kts
30-Apr-18 07:56 34.255526 -117.875228 160 10996ft 196kts
30-Apr-18 07:57 34.208412 -117.851726 160 10999ft 196kts
30-Apr-18 07:58 34.161792 -117.828533 160 10234ft 194kts
30-Apr-18 07:59 34.123443 -117.809459 159 9461ft 190kts
30-Apr-18 08:01 34.089075 -117.792366 159 8760ft 188kts
30-Apr-18 08:02 34.056521 -117.786343 183 8113ft 182kts
30-Apr-18 08:03 34.024711 -117.785900 182 7485ft 179kts
30-Apr-18 08:04 33.989806 -117.785191 182 6776ft 174kts
30-Apr-18 08:05 33.957861 -117.780078 153 6091ft 174kts
30-Apr-18 08:06 33.922576 -117.754556 151 5140ft 144kts
30-Apr-18 08:07 33.892145 -117.747783 181 4246ft 124kts
30-Apr-18 08:08 33.856122 -117.754454 206 3274ft 138kts
30-Apr-18 08:09 33.826089 -117.773353 206 2944ft 102kts
30-Apr-18 08:10 33.794009 -117.793705 206 2561ft 150kts
30-Apr-18 08:11 33.757004 -117.817224 205 1753ft 148kts
30-Apr-18 08:12 33.730507 -117.834055 204 1183ft 102kts
30-Apr-18 08:13 33.706531 -117.849282 204 642ft 87kts
30-Apr-18 08:14 33.685505 -117.862619 204 184ft 84kts
30-Apr-18 08:15 33.672131 -117.872149 281 60ft 11kts
30-Apr-18 08:15 33.674949 -117.871032 310 60ft 13kts

Navigation Log

Ident Type
Flight plan parsing failed, navigation log unavailable